sensor_id;sensor_type;location;lat;lon;timestamp;pressure;altitude;pressure_sealevel;temperature;humidity
71567;BME280;59403;47.456;19.120;2023-02-18T00:02:22;100715.03;;;9.87;96.20
71567;BME280;59403;47.456;19.120;2023-02-18T00:04:48;100714.53;;;9.74;97.12
71567;BME280;59403;47.456;19.120;2023-02-18T00:07:16;100699.94;;;9.97;96.29
71567;BME280;59403;47.456;19.120;2023-02-18T00:09:43;100696.66;;;10.22;95.14
71567;BME280;59403;47.456;19.120;2023-02-18T00:12:10;100696.72;;;10.03;96.03
71567;BME280;59403;47.456;19.120;2023-02-18T00:14:39;100695.41;;;10.26;95.28
71567;BME280;59403;47.456;19.120;2023-02-18T00:17:07;100682.97;;;10.27;95.44
71567;BME280;59403;47.456;19.120;2023-02-18T00:19:34;100687.19;;;10.47;94.57
71567;BME280;59403;47.456;19.120;2023-02-18T00:22:00;100684.00;;;10.44;94.90
71567;BME280;59403;47.456;19.120;2023-02-18T00:24:27;100679.66;;;10.70;93.38
71567;BME280;59403;47.456;19.120;2023-02-18T00:26:54;100673.41;;;10.44;94.50
71567;BME280;59403;47.456;19.120;2023-02-18T00:29:21;100679.56;;;10.44;94.32
71567;BME280;59403;47.456;19.120;2023-02-18T00:31:48;100671.97;;;10.32;95.10
71567;BME280;59403;47.456;19.120;2023-02-18T00:34:16;100682.03;;;10.18;95.91
71567;BME280;59403;47.456;19.120;2023-02-18T00:36:43;100669.38;;;10.40;94.92
71567;BME280;59403;47.456;19.120;2023-02-18T00:39:10;100666.44;;;10.25;95.72
71567;BME280;59403;47.456;19.120;2023-02-18T00:41:38;100669.09;;;10.60;94.88
71567;BME280;59403;47.456;19.120;2023-02-18T00:44:05;100668.50;;;10.49;94.77
71567;BME280;59403;47.456;19.120;2023-02-18T00:46:33;100662.47;;;10.56;94.99
71567;BME280;59403;47.456;19.120;2023-02-18T00:49:00;100650.47;;;10.35;96.14
71567;BME280;59403;47.456;19.120;2023-02-18T00:51:28;100653.06;;;10.44;95.82
71567;BME280;59403;47.456;19.120;2023-02-18T00:53:56;100656.66;;;10.25;97.44
71567;BME280;59403;47.456;19.120;2023-02-18T00:56:23;100655.53;;;10.28;97.21
71567;BME280;59403;47.456;19.120;2023-02-18T00:58:51;100657.00;;;10.58;96.20
71567;BME280;59403;47.456;19.120;2023-02-18T01:01:19;100658.00;;;10.74;95.15
71567;BME280;59403;47.456;19.120;2023-02-18T01:03:45;100655.47;;;10.55;96.07
71567;BME280;59403;47.456;19.120;2023-02-18T01:06:12;100649.66;;;10.52;96.17
71567;BME280;59403;47.456;19.120;2023-02-18T01:08:41;100645.56;;;10.92;94.24
71567;BME280;59403;47.456;19.120;2023-02-18T01:11:09;100646.09;;;10.61;95.87
71567;BME280;59403;47.456;19.120;2023-02-18T01:13:37;100644.91;;;10.90;94.48
71567;BME280;59403;47.456;19.120;2023-02-18T01:16:04;100643.47;;;10.78;95.27
71567;BME280;59403;47.456;19.120;2023-02-18T01:18:31;100643.25;;;10.54;96.21
71567;BME280;59403;47.456;19.120;2023-02-18T01:20:58;100644.47;;;10.60;96.23
71567;BME280;59403;47.456;19.120;2023-02-18T01:23:25;100638.84;;;10.98;94.34
71567;BME280;59403;47.456;19.120;2023-02-18T01:25:54;100639.91;;;10.70;95.91
71567;BME280;59403;47.456;19.120;2023-02-18T01:28:20;100641.94;;;10.58;96.36
71567;BME280;59403;47.456;19.120;2023-02-18T01:30:49;100642.78;;;10.59;96.73
71567;BME280;59403;47.456;19.120;2023-02-18T01:33:16;100637.09;;;10.54;97.00
71567;BME280;59403;47.456;19.120;2023-02-18T01:35:43;100630.28;;;10.51;97.30
71567;BME280;59403;47.456;19.120;2023-02-18T01:38:10;100635.44;;;10.53;97.37
71567;BME280;59403;47.456;19.120;2023-02-18T01:40:45;100626.56;;;10.62;96.78
71567;BME280;59403;47.456;19.120;2023-02-18T01:43:14;100612.75;;;10.68;96.76
71567;BME280;59403;47.456;19.120;2023-02-18T01:45:56;100616.37;;;10.67;96.25
71567;BME280;59403;47.456;19.120;2023-02-18T01:48:28;100611.38;;;10.81;95.72
71567;BME280;59403;47.456;19.120;2023-02-18T01:50:59;100623.13;;;10.61;96.92
71567;BME280;59403;47.456;19.120;2023-02-18T01:53:30;100610.47;;;10.73;95.95
71567;BME280;59403;47.456;19.120;2023-02-18T01:56:01;100622.06;;;10.54;97.03
71567;BME280;59403;47.456;19.120;2023-02-18T01:58:32;100616.50;;;10.83;95.65
71567;BME280;59403;47.456;19.120;2023-02-18T02:00:59;100624.81;;;10.88;94.86
71567;BME280;59403;47.456;19.120;2023-02-18T02:03:26;100622.66;;;11.09;93.77
71567;BME280;59403;47.456;19.120;2023-02-18T02:05:53;100623.50;;;11.09;93.03
71567;BME280;59403;47.456;19.120;2023-02-18T02:08:20;100601.34;;;12.11;87.05
71567;BME280;59403;47.456;19.120;2023-02-18T02:11:07;100605.00;;;12.10;86.76
71567;BME280;59403;47.456;19.120;2023-02-18T02:13:51;100596.78;;;12.62;83.46
71567;BME280;59403;47.456;19.120;2023-02-18T02:16:25;100579.50;;;12.49;83.94
71567;BME280;59403;47.456;19.120;2023-02-18T02:19:04;100590.97;;;12.42;84.22
71567;BME280;59403;47.456;19.120;2023-02-18T02:21:53;100570.06;;;12.55;83.18
71567;BME280;59403;47.456;19.120;2023-02-18T02:27:02;100567.41;;;12.47;83.17
71567;BME280;59403;47.456;19.120;2023-02-18T02:33:11;100559.09;;;12.66;81.91
71567;BME280;59403;47.456;19.120;2023-02-18T02:35:44;100569.91;;;12.73;81.30
71567;BME280;59403;47.456;19.120;2023-02-18T02:38:18;100572.72;;;12.71;81.92
71567;BME280;59403;47.456;19.120;2023-02-18T02:40:51;100570.91;;;12.80;80.98
71567;BME280;59403;47.456;19.120;2023-02-18T02:43:27;100567.91;;;12.58;82.00
71567;BME280;59403;47.456;19.120;2023-02-18T02:46:01;100562.72;;;12.89;80.47
71567;BME280;59403;47.456;19.120;2023-02-18T02:48:32;100560.25;;;12.96;79.92
71567;BME280;59403;47.456;19.120;2023-02-18T02:51:08;100564.91;;;12.78;80.84
71567;BME280;59403;47.456;19.120;2023-02-18T02:53:38;100564.56;;;12.97;79.68
71567;BME280;59403;47.456;19.120;2023-02-18T02:56:05;100569.25;;;12.79;80.45
71567;BME280;59403;47.456;19.120;2023-02-18T02:58:32;100563.91;;;12.87;79.99
71567;BME280;59403;47.456;19.120;2023-02-18T03:01:14;100575.53;;;12.78;80.28
71567;BME280;59403;47.456;19.120;2023-02-18T03:04:06;100574.53;;;12.87;79.80
71567;BME280;59403;47.456;19.120;2023-02-18T03:06:51;100583.16;;;12.81;80.25
71567;BME280;59403;47.456;19.120;2023-02-18T03:09:31;100565.59;;;13.04;78.91
71567;BME280;59403;47.456;19.120;2023-02-18T03:12:05;100575.53;;;13.18;78.48
71567;BME280;59403;47.456;19.120;2023-02-18T03:14:42;100580.50;;;12.97;79.26
71567;BME280;59403;47.456;19.120;2023-02-18T03:17:13;100589.84;;;13.17;78.44
71567;BME280;59403;47.456;19.120;2023-02-18T03:19:46;100582.69;;;12.93;79.30
71567;BME280;59403;47.456;19.120;2023-02-18T03:22:19;100607.13;;;12.89;79.59
71567;BME280;59403;47.456;19.120;2023-02-18T03:24:49;100608.09;;;12.96;79.32
71567;BME280;59403;47.456;19.120;2023-02-18T03:27:21;100620.03;;;13.00;79.00
71567;BME280;59403;47.456;19.120;2023-02-18T03:29:52;100613.44;;;12.96;79.53
71567;BME280;59403;47.456;19.120;2023-02-18T03:32:22;100601.78;;;12.89;79.79
71567;BME280;59403;47.456;19.120;2023-02-18T03:34:52;100600.13;;;13.12;78.77
71567;BME280;59403;47.456;19.120;2023-02-18T03:37:22;100588.84;;;13.02;78.88
71567;BME280;59403;47.456;19.120;2023-02-18T03:39:51;100597.66;;;13.02;78.94
71567;BME280;59403;47.456;19.120;2023-02-18T03:42:19;100599.13;;;12.81;79.97
71567;BME280;59403;47.456;19.120;2023-02-18T03:44:50;100602.78;;;12.80;80.02
71567;BME280;59403;47.456;19.120;2023-02-18T03:47:17;100601.47;;;12.68;80.64
71567;BME280;59403;47.456;19.120;2023-02-18T03:49:44;100594.47;;;12.67;80.71
71567;BME280;59403;47.456;19.120;2023-02-18T03:52:11;100606.37;;;12.22;83.06
71567;BME280;59403;47.456;19.120;2023-02-18T03:54:42;100611.88;;;12.45;82.42
71567;BME280;59403;47.456;19.120;2023-02-18T03:57:08;100626.66;;;12.47;82.04
71567;BME280;59403;47.456;19.120;2023-02-18T03:59:35;100633.00;;;12.63;81.67
71567;BME280;59403;47.456;19.120;2023-02-18T04:02:02;100649.12;;;12.61;81.37
71567;BME280;59403;47.456;19.120;2023-02-18T04:04:29;100630.69;;;12.60;81.70
71567;BME280;59403;47.456;19.120;2023-02-18T04:06:56;100632.63;;;12.41;82.77
71567;BME280;59403;47.456;19.120;2023-02-18T04:09:23;100642.16;;;12.68;81.36
71567;BME280;59403;47.456;19.120;2023-02-18T04:11:51;100640.47;;;12.67;81.35
71567;BME280;59403;47.456;19.120;2023-02-18T04:14:18;100646.94;;;12.48;82.45
71567;BME280;59403;47.456;19.120;2023-02-18T04:16:45;100639.34;;;12.86;80.58
71567;BME280;59403;47.456;19.120;2023-02-18T04:19:12;100632.84;;;12.56;82.15
71567;BME280;59403;47.456;19.120;2023-02-18T04:21:39;100628.34;;;12.40;83.02
71567;BME280;59403;47.456;19.120;2023-02-18T04:24:06;100616.41;;;12.61;82.45
71567;BME280;59403;47.456;19.120;2023-02-18T04:26:33;100640.44;;;12.43;83.12
71567;BME280;59403;47.456;19.120;2023-02-18T04:29:01;100632.28;;;12.36;83.75
71567;BME280;59403;47.456;19.120;2023-02-18T04:31:28;100637.16;;;12.49;83.44
71567;BME280;59403;47.456;19.120;2023-02-18T04:33:55;100654.37;;;12.45;83.61
71567;BME280;59403;47.456;19.120;2023-02-18T04:36:22;100646.41;;;12.37;83.84
71567;BME280;59403;47.456;19.120;2023-02-18T04:38:48;100635.41;;;12.32;84.35
71567;BME280;59403;47.456;19.120;2023-02-18T04:41:15;100631.28;;;12.21;84.97
71567;BME280;59403;47.456;19.120;2023-02-18T04:43:42;100643.78;;;11.95;86.02
71567;BME280;59403;47.456;19.120;2023-02-18T04:46:10;100639.88;;;12.15;85.33
71567;BME280;59403;47.456;19.120;2023-02-18T04:48:37;100635.56;;;12.14;85.74
71567;BME280;59403;47.456;19.120;2023-02-18T04:51:05;100658.38;;;11.99;86.26
71567;BME280;59403;47.456;19.120;2023-02-18T04:53:32;100655.28;;;12.12;85.96
71567;BME280;59403;47.456;19.120;2023-02-18T04:55:59;100662.91;;;12.15;85.53
71567;BME280;59403;47.456;19.120;2023-02-18T04:58:26;100663.66;;;12.33;84.85
71567;BME280;59403;47.456;19.120;2023-02-18T05:00:53;100662.47;;;12.19;85.49
71567;BME280;59403;47.456;19.120;2023-02-18T05:03:25;100656.41;;;12.67;82.53
71567;BME280;59403;47.456;19.120;2023-02-18T05:05:52;100673.50;;;12.56;83.27
71567;BME280;59403;47.456;19.120;2023-02-18T05:08:19;100675.31;;;12.48;84.03
71567;BME280;59403;47.456;19.120;2023-02-18T05:10:46;100664.50;;;12.41;84.57
71567;BME280;59403;47.456;19.120;2023-02-18T05:13:12;100677.41;;;12.28;85.37
71567;BME280;59403;47.456;19.120;2023-02-18T05:15:39;100692.34;;;12.29;85.17
71567;BME280;59403;47.456;19.120;2023-02-18T05:18:06;100686.22;;;12.29;85.26
71567;BME280;59403;47.456;19.120;2023-02-18T05:20:35;100689.38;;;12.32;85.15
71567;BME280;59403;47.456;19.120;2023-02-18T05:23:01;100689.62;;;12.13;86.41
71567;BME280;59403;47.456;19.120;2023-02-18T05:25:28;100691.00;;;12.25;86.28
71567;BME280;59403;47.456;19.120;2023-02-18T05:27:55;100688.00;;;12.20;86.83
71567;BME280;59403;47.456;19.120;2023-02-18T05:30:22;100694.75;;;12.07;87.84
71567;BME280;59403;47.456;19.120;2023-02-18T05:32:49;100682.41;;;11.90;89.20
71567;BME280;59403;47.456;19.120;2023-02-18T05:35:16;100684.63;;;11.77;90.20
71567;BME280;59403;47.456;19.120;2023-02-18T05:37:44;100683.00;;;11.76;90.22
71567;BME280;59403;47.456;19.120;2023-02-18T05:40:11;100694.75;;;11.56;91.25
71567;BME280;59403;47.456;19.120;2023-02-18T05:42:38;100702.75;;;11.38;93.15
71567;BME280;59403;47.456;19.120;2023-02-18T05:45:05;100703.94;;;11.18;93.58
71567;BME280;59403;47.456;19.120;2023-02-18T05:47:32;100701.91;;;11.12;94.75
71567;BME280;59403;47.456;19.120;2023-02-18T05:49:59;100704.06;;;11.34;94.07
71567;BME280;59403;47.456;19.120;2023-02-18T05:52:26;100705.66;;;11.70;91.41
71567;BME280;59403;47.456;19.120;2023-02-18T05:54:55;100714.50;;;11.79;90.61
71567;BME280;59403;47.456;19.120;2023-02-18T05:57:21;100722.78;;;11.76;90.68
71567;BME280;59403;47.456;19.120;2023-02-18T05:59:48;100732.41;;;11.77;90.53
71567;BME280;59403;47.456;19.120;2023-02-18T06:02:15;100741.28;;;11.68;90.83
71567;BME280;59403;47.456;19.120;2023-02-18T06:04:42;100750.44;;;11.73;90.73
71567;BME280;59403;47.456;19.120;2023-02-18T06:07:09;100754.12;;;12.06;88.38
71567;BME280;59403;47.456;19.120;2023-02-18T06:09:36;100747.50;;;11.76;89.86
71567;BME280;59403;47.456;19.120;2023-02-18T06:12:05;100747.19;;;11.79;89.24
71567;BME280;59403;47.456;19.120;2023-02-18T06:14:31;100756.72;;;11.90;87.92
71567;BME280;59403;47.456;19.120;2023-02-18T06:16:59;100753.38;;;11.88;87.96
71567;BME280;59403;47.456;19.120;2023-02-18T06:19:26;100754.72;;;11.66;89.22
71567;BME280;59403;47.456;19.120;2023-02-18T06:21:52;100771.75;;;11.64;89.25
71567;BME280;59403;47.456;19.120;2023-02-18T06:24:20;100767.97;;;11.48;89.87
71567;BME280;59403;47.456;19.120;2023-02-18T06:26:47;100764.94;;;11.61;89.56
71567;BME280;59403;47.456;19.120;2023-02-18T06:29:15;100785.56;;;11.50;89.73
71567;BME280;59403;47.456;19.120;2023-02-18T06:31:42;100781.53;;;11.45;89.94
71567;BME280;59403;47.456;19.120;2023-02-18T06:34:09;100780.75;;;11.27;91.20
71567;BME280;59403;47.456;19.120;2023-02-18T06:36:36;100777.78;;;11.30;91.13
71567;BME280;59403;47.456;19.120;2023-02-18T06:39:03;100789.44;;;11.55;89.67
71567;BME280;59403;47.456;19.120;2023-02-18T06:41:31;100781.94;;;11.33;93.65
71567;BME280;59403;47.456;19.120;2023-02-18T06:43:58;100781.38;;;11.47;93.44
71567;BME280;59403;47.456;19.120;2023-02-18T06:46:26;100772.22;;;11.41;93.12
71567;BME280;59403;47.456;19.120;2023-02-18T06:48:53;100778.00;;;11.19;94.86
71567;BME280;59403;47.456;19.120;2023-02-18T06:51:20;100774.97;;;11.32;93.51
71567;BME280;59403;47.456;19.120;2023-02-18T06:53:47;100775.66;;;11.34;93.43
71567;BME280;59403;47.456;19.120;2023-02-18T06:56:14;100775.56;;;11.26;94.43
71567;BME280;59403;47.456;19.120;2023-02-18T06:58:40;100780.81;;;11.35;94.25
71567;BME280;59403;47.456;19.120;2023-02-18T07:01:07;100791.09;;;11.21;95.24
71567;BME280;59403;47.456;19.120;2023-02-18T07:03:36;100780.34;;;11.22;96.06
71567;BME280;59403;47.456;19.120;2023-02-18T07:06:03;100780.44;;;11.30;96.14
71567;BME280;59403;47.456;19.120;2023-02-18T07:08:30;100789.59;;;11.36;96.42
71567;BME280;59403;47.456;19.120;2023-02-18T07:10:57;100798.16;;;11.30;97.25
71567;BME280;59403;47.456;19.120;2023-02-18T07:13:24;100803.75;;;11.27;97.89
71567;BME280;59403;47.456;19.120;2023-02-18T07:15:52;100799.31;;;11.27;98.35
71567;BME280;59403;47.456;19.120;2023-02-18T07:18:19;100793.31;;;11.25;99.03
71567;BME280;59403;47.456;19.120;2023-02-18T07:20:47;100792.31;;;11.26;99.00
71567;BME280;59403;47.456;19.120;2023-02-18T07:23:14;100796.56;;;11.37;98.62
71567;BME280;59403;47.456;19.120;2023-02-18T07:25:41;100803.53;;;11.20;99.64
71567;BME280;59403;47.456;19.120;2023-02-18T07:28:08;100815.25;;;11.18;99.93
71567;BME280;59403;47.456;19.120;2023-02-18T07:30:35;100799.97;;;11.29;99.05
71567;BME280;59403;47.456;19.120;2023-02-18T07:33:02;100810.34;;;11.23;99.20
71567;BME280;59403;47.456;19.120;2023-02-18T07:35:31;100799.84;;;11.31;99.06
71567;BME280;59403;47.456;19.120;2023-02-18T07:38:00;100791.72;;;11.32;98.47
71567;BME280;59403;47.456;19.120;2023-02-18T07:40:27;100787.06;;;11.52;96.76
71567;BME280;59403;47.456;19.120;2023-02-18T07:42:57;100785.25;;;11.53;96.63
71567;BME280;59403;47.456;19.120;2023-02-18T07:45:24;100778.97;;;11.54;96.11
71567;BME280;59403;47.456;19.120;2023-02-18T07:47:51;100790.13;;;11.57;96.22
71567;BME280;59403;47.456;19.120;2023-02-18T07:50:18;100778.66;;;11.57;95.96
71567;BME280;59403;47.456;19.120;2023-02-18T07:52:45;100781.53;;;11.63;95.18
71567;BME280;59403;47.456;19.120;2023-02-18T07:55:13;100777.78;;;11.66;95.24
71567;BME280;59403;47.456;19.120;2023-02-18T07:57:40;100778.59;;;11.66;94.86
71567;BME280;59403;47.456;19.120;2023-02-18T08:00:21;100773.00;;;11.69;95.01
71567;BME280;59403;47.456;19.120;2023-02-18T08:02:48;100771.59;;;11.83;93.46
71567;BME280;59403;47.456;19.120;2023-02-18T08:05:15;100771.12;;;11.87;92.47
71567;BME280;59403;47.456;19.120;2023-02-18T08:07:42;100778.47;;;11.93;92.04
71567;BME280;59403;47.456;19.120;2023-02-18T08:10:09;100775.28;;;11.90;92.54
71567;BME280;59403;47.456;19.120;2023-02-18T08:12:37;100775.34;;;11.98;91.83
71567;BME280;59403;47.456;19.120;2023-02-18T08:15:04;100787.84;;;12.05;91.57
71567;BME280;59403;47.456;19.120;2023-02-18T08:17:32;100791.00;;;12.09;91.49
71567;BME280;59403;47.456;19.120;2023-02-18T08:19:58;100792.97;;;12.07;91.07
71567;BME280;59403;47.456;19.120;2023-02-18T08:22:25;100801.09;;;12.31;89.46
71567;BME280;59403;47.456;19.120;2023-02-18T08:24:53;100791.56;;;12.20;90.58
71567;BME280;59403;47.456;19.120;2023-02-18T08:27:20;100791.69;;;12.44;87.75
71567;BME280;59403;47.456;19.120;2023-02-18T08:29:49;100791.16;;;12.41;87.79
71567;BME280;59403;47.456;19.120;2023-02-18T08:32:16;100796.56;;;12.57;86.44
71567;BME280;59403;47.456;19.120;2023-02-18T08:34:42;100790.91;;;12.52;86.69
71567;BME280;59403;47.456;19.120;2023-02-18T08:37:09;100795.09;;;12.63;85.86
71567;BME280;59403;47.456;19.120;2023-02-18T08:39:37;100791.47;;;12.72;85.72
71567;BME280;59403;47.456;19.120;2023-02-18T08:42:04;100790.28;;;12.66;85.68
71567;BME280;59403;47.456;19.120;2023-02-18T08:44:31;100795.72;;;12.56;86.44
71567;BME280;59403;47.456;19.120;2023-02-18T08:46:59;100796.97;;;12.78;84.81
71567;BME280;59403;47.456;19.120;2023-02-18T08:49:26;100793.97;;;12.73;85.06
71567;BME280;59403;47.456;19.120;2023-02-18T08:51:53;100783.50;;;12.72;85.58
71567;BME280;59403;47.456;19.120;2023-02-18T08:54:20;100784.81;;;12.68;86.19
71567;BME280;59403;47.456;19.120;2023-02-18T08:56:47;100790.97;;;12.76;85.85
71567;BME280;59403;47.456;19.120;2023-02-18T08:59:14;100777.88;;;12.83;85.30
71567;BME280;59403;47.456;19.120;2023-02-18T09:01:41;100787.38;;;12.85;85.21
71567;BME280;59403;47.456;19.120;2023-02-18T09:04:09;100793.16;;;12.81;85.64
71567;BME280;59403;47.456;19.120;2023-02-18T09:06:39;100797.16;;;12.93;84.96
71567;BME280;59403;47.456;19.120;2023-02-18T09:09:07;100793.53;;;12.94;84.29
71567;BME280;59403;47.456;19.120;2023-02-18T09:11:35;100794.19;;;12.96;84.22
71567;BME280;59403;47.456;19.120;2023-02-18T09:14:01;100798.16;;;12.92;84.28
71567;BME280;59403;47.456;19.120;2023-02-18T09:16:29;100793.69;;;12.92;83.81
71567;BME280;59403;47.456;19.120;2023-02-18T09:18:56;100780.47;;;12.67;85.61
71567;BME280;59403;47.456;19.120;2023-02-18T09:21:25;100784.16;;;12.74;84.88
71567;BME280;59403;47.456;19.120;2023-02-18T09:23:52;100788.09;;;12.62;86.10
71567;BME280;59403;47.456;19.120;2023-02-18T09:26:20;100784.66;;;12.69;85.89
71567;BME280;59403;47.456;19.120;2023-02-18T09:28:47;100773.56;;;12.82;84.57
71567;BME280;59403;47.456;19.120;2023-02-18T09:31:16;100774.56;;;12.89;84.22
71567;BME280;59403;47.456;19.120;2023-02-18T09:33:46;100771.41;;;12.85;84.06
71567;BME280;59403;47.456;19.120;2023-02-18T09:36:14;100773.06;;;12.86;84.62
71567;BME280;59403;47.456;19.120;2023-02-18T09:38:42;100772.09;;;12.87;84.87
71567;BME280;59403;47.456;19.120;2023-02-18T09:41:24;100772.72;;;12.89;85.79
71567;BME280;59403;47.456;19.120;2023-02-18T09:43:54;100771.16;;;13.04;84.62
71567;BME280;59403;47.456;19.120;2023-02-18T09:46:26;100766.00;;;13.03;84.96
71567;BME280;59403;47.456;19.120;2023-02-18T09:48:55;100770.66;;;13.09;84.93
71567;BME280;59403;47.456;19.120;2023-02-18T09:51:22;100771.31;;;13.19;84.25
71567;BME280;59403;47.456;19.120;2023-02-18T09:53:50;100773.84;;;13.36;83.65
71567;BME280;59403;47.456;19.120;2023-02-18T09:56:25;100782.34;;;13.48;82.59
71567;BME280;59403;47.456;19.120;2023-02-18T09:58:54;100769.19;;;13.62;82.32
71567;BME280;59403;47.456;19.120;2023-02-18T10:01:27;100769.78;;;14.05;80.64
71567;BME280;59403;47.456;19.120;2023-02-18T10:03:59;100774.06;;;14.38;79.74
71567;BME280;59403;47.456;19.120;2023-02-18T10:06:30;100779.13;;;14.01;79.98
71567;BME280;59403;47.456;19.120;2023-02-18T10:09:02;100779.66;;;13.80;80.93
71567;BME280;59403;47.456;19.120;2023-02-18T10:11:32;100769.97;;;13.95;80.40
71567;BME280;59403;47.456;19.120;2023-02-18T10:14:01;100776.63;;;13.99;80.43
71567;BME280;59403;47.456;19.120;2023-02-18T10:16:29;100764.66;;;13.87;80.70
71567;BME280;59403;47.456;19.120;2023-02-18T10:18:58;100760.47;;;14.01;80.65
71567;BME280;59403;47.456;19.120;2023-02-18T10:21:27;100760.78;;;14.06;79.29
71567;BME280;59403;47.456;19.120;2023-02-18T10:24:00;100763.63;;;14.04;80.44
71567;BME280;59403;47.456;19.120;2023-02-18T10:26:33;100764.50;;;13.89;79.70
71567;BME280;59403;47.456;19.120;2023-02-18T10:29:00;100749.37;;;13.81;79.69
71567;BME280;59403;47.456;19.120;2023-02-18T10:31:32;100765.00;;;13.76;79.44
71567;BME280;59403;47.456;19.120;2023-02-18T10:34:12;100763.03;;;13.86;78.44
71567;BME280;59403;47.456;19.120;2023-02-18T10:36:45;100757.88;;;13.85;78.65
71567;BME280;59403;47.456;19.120;2023-02-18T10:41:57;100751.22;;;13.81;78.65
71567;BME280;59403;47.456;19.120;2023-02-18T10:44:35;100753.19;;;13.95;77.32
71567;BME280;59403;47.456;19.120;2023-02-18T10:47:14;100739.78;;;14.19;76.59
71567;BME280;59403;47.456;19.120;2023-02-18T10:49:56;100731.34;;;14.85;75.31
71567;BME280;59403;47.456;19.120;2023-02-18T10:52:26;100739.28;;;15.15;73.26
71567;BME280;59403;47.456;19.120;2023-02-18T10:54:59;100718.50;;;15.11;74.12
71567;BME280;59403;47.456;19.120;2023-02-18T10:57:29;100713.72;;;15.06;74.02
71567;BME280;59403;47.456;19.120;2023-02-18T11:00:02;100706.09;;;14.95;74.84
71567;BME280;59403;47.456;19.120;2023-02-18T11:02:37;100716.41;;;14.75;75.38
71567;BME280;59403;47.456;19.120;2023-02-18T11:05:16;100706.44;;;14.69;75.74
71567;BME280;59403;47.456;19.120;2023-02-18T11:07:47;100717.38;;;14.52;76.90
71567;BME280;59403;47.456;19.120;2023-02-18T11:10:17;100707.78;;;14.65;76.59
71567;BME280;59403;47.456;19.120;2023-02-18T11:12:48;100705.75;;;14.45;77.68
71567;BME280;59403;47.456;19.120;2023-02-18T11:15:19;100698.91;;;14.50;77.70
71567;BME280;59403;47.456;19.120;2023-02-18T11:17:48;100697.75;;;14.45;77.86
71567;BME280;59403;47.456;19.120;2023-02-18T11:20:28;100694.66;;;14.33;78.48
71567;BME280;59403;47.456;19.120;2023-02-18T11:23:14;100693.19;;;14.15;79.19
71567;BME280;59403;47.456;19.120;2023-02-18T11:25:56;100686.56;;;14.03;80.00
71567;BME280;59403;47.456;19.120;2023-02-18T11:28:32;100689.78;;;13.90;80.55
71567;BME280;59403;47.456;19.120;2023-02-18T11:31:03;100684.31;;;13.84;81.34
71567;BME280;59403;47.456;19.120;2023-02-18T11:33:34;100676.50;;;13.82;81.12
71567;BME280;59403;47.456;19.120;2023-02-18T11:36:08;100681.50;;;13.77;81.39
71567;BME280;59403;47.456;19.120;2023-02-18T11:38:44;100671.31;;;13.89;81.25
71567;BME280;59403;47.456;19.120;2023-02-18T11:41:17;100668.78;;;13.95;81.68
71567;BME280;59403;47.456;19.120;2023-02-18T11:43:47;100664.50;;;14.25;80.42
71567;BME280;59403;47.456;19.120;2023-02-18T11:46:17;100662.66;;;14.25;81.10
71567;BME280;59403;47.456;19.120;2023-02-18T11:48:45;100661.38;;;14.29;79.96
71567;BME280;59403;47.456;19.120;2023-02-18T11:51:16;100661.53;;;14.20;80.84
71567;BME280;59403;47.456;19.120;2023-02-18T11:53:59;100652.88;;;14.26;80.44
71567;BME280;59403;47.456;19.120;2023-02-18T11:56:29;100662.84;;;14.24;81.32
71567;BME280;59403;47.456;19.120;2023-02-18T11:58:58;100645.31;;;14.37;81.19
71567;BME280;59403;47.456;19.120;2023-02-18T12:01:42;100637.81;;;14.41;80.06
71567;BME280;59403;47.456;19.120;2023-02-18T12:04:12;100635.59;;;14.52;79.78
71567;BME280;59403;47.456;19.120;2023-02-18T12:06:47;100625.28;;;14.72;77.98
71567;BME280;59403;47.456;19.120;2023-02-18T12:09:25;100621.19;;;14.84;78.27
71567;BME280;59403;47.456;19.120;2023-02-18T12:11:57;100610.00;;;14.89;77.81
71567;BME280;59403;47.456;19.120;2023-02-18T12:14:25;100590.78;;;14.93;76.93
71567;BME280;59403;47.456;19.120;2023-02-18T12:17:13;100602.03;;;14.80;77.43
71567;BME280;59403;47.456;19.120;2023-02-18T12:19:53;100600.88;;;14.83;77.28
71567;BME280;59403;47.456;19.120;2023-02-18T12:22:34;100601.69;;;14.84;76.36
71567;BME280;59403;47.456;19.120;2023-02-18T12:25:19;100601.72;;;14.61;77.33
71567;BME280;59403;47.456;19.120;2023-02-18T12:27:55;100589.63;;;14.50;77.93
71567;BME280;59403;47.456;19.120;2023-02-18T12:33:44;100583.94;;;14.53;77.72
71567;BME280;59403;47.456;19.120;2023-02-18T12:36:21;100575.75;;;14.55;77.54
71567;BME280;59403;47.456;19.120;2023-02-18T12:39:02;100573.63;;;14.50;76.62
71567;BME280;59403;47.456;19.120;2023-02-18T12:41:52;100569.88;;;14.59;76.03
71567;BME280;59403;47.456;19.120;2023-02-18T12:47:13;100563.56;;;14.60;75.50
71567;BME280;59403;47.456;19.120;2023-02-18T12:50:07;100552.81;;;14.68;74.50
71567;BME280;59403;47.456;19.120;2023-02-18T12:52:50;100570.88;;;14.81;72.75
71567;BME280;59403;47.456;19.120;2023-02-18T12:55:27;100562.31;;;14.86;72.20
71567;BME280;59403;47.456;19.120;2023-02-18T12:58:06;100561.16;;;14.88;71.70
71567;BME280;59403;47.456;19.120;2023-02-18T13:00:52;100547.56;;;14.98;70.94
71567;BME280;59403;47.456;19.120;2023-02-18T13:03:53;100549.78;;;14.94;71.26
71567;BME280;59403;47.456;19.120;2023-02-18T13:06:37;100551.50;;;14.87;72.13
71567;BME280;59403;47.456;19.120;2023-02-18T13:09:12;100545.16;;;14.88;71.95
71567;BME280;59403;47.456;19.120;2023-02-18T13:11:48;100539.25;;;14.93;71.59